createdAt,value
2023-08-17T00:01:17.807Z,17.91
2023-08-17T00:03:44.365Z,17.85
2023-08-17T00:06:10.886Z,17.83
2023-08-17T00:08:37.392Z,17.80
2023-08-17T00:11:03.968Z,17.78
2023-08-17T00:13:30.434Z,17.76
2023-08-17T00:15:56.968Z,17.74
2023-08-17T00:18:23.512Z,17.72
2023-08-17T00:20:50.026Z,17.72
2023-08-17T00:23:16.548Z,17.69
2023-08-17T00:25:43.022Z,17.70
2023-08-17T00:28:09.835Z,17.62
2023-08-17T00:30:39.203Z,17.61
2023-08-17T00:33:05.885Z,17.62
2023-08-17T00:35:33.680Z,17.58
2023-08-17T00:38:01.052Z,17.55
2023-08-17T00:40:27.542Z,17.54
2023-08-17T00:42:54.047Z,17.54
2023-08-17T00:45:20.800Z,17.54
2023-08-17T00:47:47.409Z,17.51
2023-08-17T00:50:15.802Z,17.48
2023-08-17T00:52:43.669Z,17.42
2023-08-17T00:55:12.259Z,17.42
2023-08-17T00:57:38.868Z,17.40
2023-08-17T01:00:06.653Z,17.41
2023-08-17T01:02:34.131Z,17.41
2023-08-17T01:05:01.675Z,17.41
2023-08-17T01:07:28.695Z,17.40
2023-08-17T01:09:55.520Z,17.34
2023-08-17T01:12:33.081Z,17.28
2023-08-17T01:15:29.265Z,17.26
2023-08-17T01:18:01.836Z,17.26
2023-08-17T01:20:28.703Z,17.26
2023-08-17T01:22:59.471Z,17.27
2023-08-17T01:25:25.985Z,17.24
2023-08-17T01:27:52.479Z,17.22
2023-08-17T01:30:19.984Z,17.17
2023-08-17T01:32:50.150Z,17.15
2023-08-17T01:35:31.880Z,17.18
2023-08-17T01:38:04.762Z,17.15
2023-08-17T01:40:33.707Z,17.14
2023-08-17T01:43:01.112Z,17.14
2023-08-17T01:45:27.889Z,17.14
2023-08-17T01:47:56.180Z,17.13
2023-08-17T01:50:22.944Z,17.12
2023-08-17T01:52:52.072Z,17.10
2023-08-17T01:55:22.933Z,17.10
2023-08-17T01:57:49.827Z,17.08
2023-08-17T02:00:16.702Z,17.04
2023-08-17T02:02:43.463Z,17.01
2023-08-17T02:05:10.195Z,17.01
2023-08-17T02:07:36.811Z,16.96
2023-08-17T02:10:03.978Z,16.89
2023-08-17T02:12:30.447Z,16.85
2023-08-17T02:14:56.935Z,16.81
2023-08-17T02:17:24.032Z,16.80
2023-08-17T02:19:50.900Z,16.77
2023-08-17T02:22:17.336Z,16.74
2023-08-17T02:24:43.772Z,16.73
2023-08-17T02:27:10.870Z,16.68
2023-08-17T02:29:37.361Z,16.66
2023-08-17T02:32:04.163Z,16.67
2023-08-17T02:34:30.749Z,16.65
2023-08-17T02:36:57.295Z,16.64
2023-08-17T02:39:23.802Z,16.65
2023-08-17T02:41:50.614Z,16.65
2023-08-17T02:44:17.136Z,16.65
2023-08-17T02:46:43.563Z,16.64
2023-08-17T02:49:10.129Z,16.63
2023-08-17T02:51:36.626Z,16.63
2023-08-17T02:54:03.109Z,16.63
2023-08-17T02:56:29.602Z,16.60
2023-08-17T02:58:56.061Z,16.59
2023-08-17T03:01:22.581Z,16.58
2023-08-17T03:03:49.020Z,16.55
2023-08-17T03:06:15.498Z,16.56
2023-08-17T03:08:42.034Z,16.56
2023-08-17T03:11:10.678Z,16.56
2023-08-17T03:13:37.216Z,16.56
2023-08-17T03:16:03.858Z,16.54
2023-08-17T03:18:30.400Z,16.55
2023-08-17T03:20:56.944Z,16.56
2023-08-17T03:23:23.439Z,16.57
2023-08-17T03:25:53.911Z,16.56
2023-08-17T03:28:20.483Z,16.57
2023-08-17T03:30:47.034Z,16.52
2023-08-17T03:33:13.657Z,16.50
2023-08-17T03:35:40.185Z,16.46
2023-08-17T03:38:06.667Z,16.47
2023-08-17T03:40:33.136Z,16.47
2023-08-17T03:42:59.567Z,16.48
2023-08-17T03:45:26.057Z,16.47
2023-08-17T03:47:52.572Z,16.45
2023-08-17T03:50:19.112Z,16.41
2023-08-17T03:52:48.685Z,16.42
2023-08-17T03:55:15.213Z,16.43
2023-08-17T03:57:42.842Z,16.42
2023-08-17T04:00:11.202Z,16.42
2023-08-17T04:02:38.319Z,16.40
2023-08-17T04:05:05.218Z,16.40
2023-08-17T04:07:31.724Z,16.43
2023-08-17T04:09:58.225Z,16.43
2023-08-17T04:12:24.669Z,16.42
2023-08-17T04:14:51.136Z,16.42
2023-08-17T04:17:17.821Z,16.43
2023-08-17T04:19:44.453Z,16.43
2023-08-17T04:22:11.042Z,16.40
2023-08-17T04:24:37.478Z,16.39
2023-08-17T04:27:04.392Z,16.39
2023-08-17T04:29:31.755Z,16.37
2023-08-17T04:31:58.873Z,16.36
2023-08-17T04:34:26.052Z,16.35
2023-08-17T04:36:52.539Z,16.35
2023-08-17T04:39:19.057Z,16.36
2023-08-17T04:41:45.605Z,16.35
2023-08-17T04:44:12.125Z,16.35
2023-08-17T04:46:38.765Z,16.36
2023-08-17T04:49:05.361Z,16.37
2023-08-17T04:51:31.846Z,16.37
2023-08-17T04:53:58.335Z,16.38
2023-08-17T04:56:25.279Z,16.43
2023-08-17T04:58:51.700Z,16.46
2023-08-17T05:01:19.290Z,16.47
2023-08-17T05:03:46.864Z,16.49
2023-08-17T05:06:14.639Z,16.50
2023-08-17T05:08:41.165Z,16.50
2023-08-17T05:11:07.684Z,16.53
2023-08-17T05:13:34.131Z,16.54
2023-08-17T05:16:00.687Z,16.54
2023-08-17T05:18:27.357Z,16.55
2023-08-17T05:20:54.777Z,16.53
2023-08-17T05:23:21.253Z,16.55
2023-08-17T05:25:48.817Z,16.56
2023-08-17T05:28:15.503Z,16.57
2023-08-17T05:30:41.948Z,16.60
2023-08-17T05:33:08.492Z,16.63
2023-08-17T05:35:35.128Z,16.69
2023-08-17T05:38:02.817Z,16.75
2023-08-17T05:40:31.628Z,16.83
2023-08-17T05:42:58.183Z,16.91
2023-08-17T05:45:24.698Z,16.96
2023-08-17T05:47:51.206Z,17.02
2023-08-17T05:50:17.639Z,17.07
2023-08-17T05:52:44.238Z,17.15
2023-08-17T05:55:10.911Z,17.23
2023-08-17T05:57:37.357Z,17.26
2023-08-17T06:00:04.275Z,17.30
2023-08-17T06:02:30.896Z,17.40
2023-08-17T06:04:57.554Z,17.52
2023-08-17T06:07:24.366Z,17.57
2023-08-17T06:09:51.251Z,17.55
2023-08-17T06:12:18.832Z,17.49
2023-08-17T06:14:45.449Z,17.48
2023-08-17T06:17:11.935Z,17.41
2023-08-17T06:19:38.439Z,17.40
2023-08-17T06:22:05.071Z,17.47
2023-08-17T06:24:31.551Z,17.53
2023-08-17T06:26:58.005Z,17.57
2023-08-17T06:29:24.476Z,17.57
2023-08-17T06:31:51.039Z,17.66
2023-08-17T06:34:17.575Z,17.73
2023-08-17T06:36:57.964Z,17.71
2023-08-17T06:39:24.443Z,17.73
2023-08-17T06:41:51.069Z,17.75
2023-08-17T06:44:17.566Z,17.80
2023-08-17T06:46:44.055Z,17.83
2023-08-17T06:49:11.718Z,17.87
2023-08-17T06:51:38.234Z,17.93
2023-08-17T06:54:05.412Z,18.02
2023-08-17T06:56:31.945Z,18.04
2023-08-17T06:58:58.383Z,18.02
2023-08-17T07:01:24.818Z,18.06
2023-08-17T07:03:51.374Z,18.13
2023-08-17T07:06:17.883Z,18.14
2023-08-17T07:08:44.381Z,18.15
2023-08-17T07:11:10.810Z,18.18
2023-08-17T07:13:37.284Z,18.23
2023-08-17T07:16:03.908Z,18.22
2023-08-17T07:18:30.490Z,18.24
2023-08-17T07:20:58.890Z,18.29
2023-08-17T07:23:25.947Z,18.40
2023-08-17T07:25:52.478Z,18.49
2023-08-17T07:28:18.970Z,18.69
2023-08-17T07:30:45.553Z,18.83
2023-08-17T07:33:12.072Z,18.94
2023-08-17T07:35:38.587Z,19.04
2023-08-17T07:38:09.494Z,19.34
2023-08-17T07:40:37.092Z,19.77
2023-08-17T07:43:03.733Z,20.25
2023-08-17T07:45:30.264Z,20.46
2023-08-17T07:47:56.818Z,20.56
2023-08-17T07:50:23.336Z,20.83
2023-08-17T07:52:49.849Z,21.04
2023-08-17T07:55:16.396Z,21.16
2023-08-17T07:57:42.938Z,21.02
2023-08-17T08:00:09.738Z,20.93
2023-08-17T08:02:36.339Z,20.82
2023-08-17T08:05:02.872Z,20.80
2023-08-17T08:07:29.717Z,20.96
2023-08-17T08:09:56.478Z,21.23
2023-08-17T08:12:23.188Z,21.48
2023-08-17T08:14:50.498Z,21.66
2023-08-17T08:17:17.040Z,21.83
2023-08-17T08:19:43.469Z,21.86
2023-08-17T08:22:09.951Z,21.99
2023-08-17T08:24:38.261Z,21.82
2023-08-17T08:27:06.108Z,21.82
2023-08-17T08:29:32.582Z,21.76
2023-08-17T08:32:00.907Z,21.65
2023-08-17T08:34:27.696Z,21.53
2023-08-17T08:36:54.422Z,21.34
2023-08-17T08:39:20.936Z,21.25
2023-08-17T08:41:47.447Z,21.20
2023-08-17T08:44:14.003Z,20.98
2023-08-17T08:46:44.867Z,20.95
2023-08-17T08:49:12.424Z,20.88
2023-08-17T08:51:47.177Z,20.83
2023-08-17T08:54:18.858Z,20.92
2023-08-17T08:56:48.467Z,21.00
2023-08-17T08:59:15.960Z,20.93
2023-08-17T09:01:43.277Z,20.89
2023-08-17T09:04:09.909Z,20.77
2023-08-17T09:06:37.870Z,20.85
2023-08-17T09:09:05.464Z,21.05
2023-08-17T09:11:31.959Z,21.31
2023-08-17T09:13:58.446Z,21.43
2023-08-17T09:16:25.942Z,21.51
2023-08-17T09:18:55.009Z,21.77
2023-08-17T09:21:25.432Z,21.77
2023-08-17T09:24:00.135Z,21.74
2023-08-17T09:26:32.204Z,21.74
2023-08-17T09:29:00.233Z,21.71
2023-08-17T09:31:26.945Z,21.76
2023-08-17T09:33:53.688Z,21.88
2023-08-17T09:36:24.768Z,21.87
2023-08-17T09:38:54.601Z,21.75
2023-08-17T09:41:27.530Z,21.80
2023-08-17T09:43:56.129Z,21.97
2023-08-17T09:46:23.009Z,21.91
2023-08-17T09:48:49.931Z,21.78
2023-08-17T09:51:17.037Z,21.84
2023-08-17T09:53:43.964Z,22.01
2023-08-17T09:56:17.796Z,21.97
2023-08-17T09:58:45.097Z,21.96
2023-08-17T10:01:14.506Z,21.99
2023-08-17T10:03:46.295Z,21.90
2023-08-17T10:06:17.110Z,21.86
2023-08-17T10:08:46.339Z,21.77
2023-08-17T10:11:16.063Z,21.73
2023-08-17T10:14:03.729Z,21.83
2023-08-17T10:16:37.501Z,21.83
2023-08-17T10:19:19.178Z,21.77
2023-08-17T10:21:54.799Z,21.79
2023-08-17T10:24:21.440Z,21.79
2023-08-17T10:26:48.749Z,21.67
2023-08-17T10:29:17.595Z,21.69
2023-08-17T10:31:48.136Z,21.73
2023-08-17T10:34:16.210Z,21.86
2023-08-17T10:36:43.880Z,21.84
2023-08-17T10:39:27.013Z,21.91
2023-08-17T10:41:56.392Z,21.88
2023-08-17T10:44:45.576Z,21.79
2023-08-17T10:47:36.455Z,21.79
2023-08-17T10:50:20.999Z,21.83
2023-08-17T10:52:50.235Z,21.77
2023-08-17T10:55:17.715Z,21.92
2023-08-17T10:57:44.849Z,22.03
2023-08-17T11:00:27.364Z,21.95
2023-08-17T11:03:01.518Z,22.01
2023-08-17T11:05:50.491Z,22.15
2023-08-17T11:08:24.503Z,22.19
2023-08-17T11:11:04.960Z,22.14
2023-08-17T11:13:39.703Z,22.19
2023-08-17T11:16:08.015Z,22.23
2023-08-17T11:18:35.019Z,22.18
2023-08-17T11:21:04.448Z,22.21
2023-08-17T11:23:32.740Z,22.20
2023-08-17T11:26:00.076Z,22.29
2023-08-17T11:28:27.114Z,22.43
2023-08-17T11:31:04.777Z,22.56
2023-08-17T11:33:32.276Z,22.54
2023-08-17T11:38:37.206Z,22.39
2023-08-17T11:41:04.085Z,22.31
2023-08-17T11:43:33.042Z,22.16
2023-08-17T11:46:01.668Z,22.12
2023-08-17T11:48:28.912Z,22.08
2023-08-17T11:50:59.098Z,22.20
2023-08-17T11:53:25.913Z,22.29
2023-08-17T11:58:37.634Z,22.37
2023-08-17T12:01:09.722Z,22.48
2023-08-17T12:03:36.349Z,22.33
2023-08-17T12:06:03.016Z,22.15
2023-08-17T12:08:30.787Z,22.16
2023-08-17T12:10:57.325Z,22.14
2023-08-17T12:13:31.818Z,22.07
2023-08-17T12:16:00.037Z,22.05
2023-08-17T12:18:26.889Z,21.95
2023-08-17T12:20:56.960Z,21.99
2023-08-17T12:23:23.560Z,22.10
2023-08-17T12:25:57.074Z,22.09
2023-08-17T12:28:25.473Z,22.16
2023-08-17T12:31:00.618Z,22.16
2023-08-17T12:33:27.268Z,22.10
2023-08-17T12:35:54.598Z,22.14
2023-08-17T12:38:21.142Z,22.14
2023-08-17T12:40:47.580Z,22.22
2023-08-17T12:43:16.038Z,22.29
2023-08-17T12:45:42.587Z,22.13
2023-08-17T12:48:09.238Z,22.07
2023-08-17T12:50:35.853Z,22.08
2023-08-17T12:53:02.334Z,22.05
2023-08-17T12:55:28.842Z,22.03
2023-08-17T12:57:55.343Z,21.97
2023-08-17T13:00:21.907Z,21.97
2023-08-17T13:02:50.492Z,21.98
2023-08-17T13:05:17.029Z,21.97
2023-08-17T13:07:43.586Z,21.96
2023-08-17T13:10:10.315Z,22.02
2023-08-17T13:12:36.832Z,21.96
2023-08-17T13:15:03.788Z,21.94
2023-08-17T13:17:30.404Z,21.97
2023-08-17T13:19:56.906Z,21.99
2023-08-17T13:22:23.538Z,21.88
2023-08-17T13:24:50.123Z,21.92
2023-08-17T13:27:16.636Z,21.84
2023-08-17T13:29:43.151Z,21.89
2023-08-17T13:32:09.622Z,21.84
2023-08-17T13:34:36.177Z,21.90
2023-08-17T13:37:04.036Z,21.91
2023-08-17T13:39:30.567Z,21.89
2023-08-17T13:41:56.990Z,21.89
2023-08-17T13:44:23.480Z,21.94
2023-08-17T13:46:49.956Z,21.95
2023-08-17T13:49:16.574Z,21.85
2023-08-17T13:51:43.106Z,21.88
2023-08-17T13:54:09.629Z,21.91
2023-08-17T13:56:36.100Z,21.85
2023-08-17T13:59:03.611Z,21.89
2023-08-17T14:01:30.230Z,21.90
2023-08-17T14:03:56.826Z,21.91
2023-08-17T14:06:23.496Z,21.96
2023-08-17T14:08:49.932Z,22.10
2023-08-17T14:11:16.405Z,22.16
2023-08-17T14:13:42.860Z,22.20
2023-08-17T14:16:09.440Z,22.26
2023-08-17T14:18:35.995Z,22.31
2023-08-17T14:21:02.616Z,22.27
2023-08-17T14:23:29.099Z,22.15
2023-08-17T14:25:55.709Z,22.13
2023-08-17T14:28:22.304Z,22.01
2023-08-17T14:30:52.628Z,22.03
2023-08-17T14:33:19.507Z,22.01
2023-08-17T14:35:46.060Z,22.01
2023-08-17T14:38:14.727Z,22.09
2023-08-17T14:40:48.043Z,22.14
2023-08-17T14:43:15.654Z,22.29
2023-08-17T14:45:42.830Z,22.28
2023-08-17T14:48:09.960Z,22.42
2023-08-17T14:50:37.376Z,22.34
2023-08-17T14:53:06.278Z,22.31
2023-08-17T14:55:33.210Z,22.29
2023-08-17T14:58:03.159Z,22.20
2023-08-17T15:00:31.720Z,22.33
2023-08-17T15:03:00.404Z,22.50
2023-08-17T15:05:28.804Z,22.53
2023-08-17T15:07:55.715Z,22.66
2023-08-17T15:10:22.237Z,22.71
2023-08-17T15:12:48.837Z,22.67
2023-08-17T15:15:21.693Z,22.56
2023-08-17T15:17:48.647Z,22.48
2023-08-17T15:20:15.165Z,22.30
2023-08-17T15:22:41.676Z,22.21
2023-08-17T15:25:08.616Z,22.24
2023-08-17T15:27:35.135Z,22.19
2023-08-17T15:30:02.086Z,22.26
2023-08-17T15:32:28.692Z,22.19
2023-08-17T15:34:57.002Z,22.26
2023-08-17T15:37:24.818Z,22.14
2023-08-17T15:39:51.873Z,22.08
2023-08-17T15:42:18.474Z,22.02
2023-08-17T15:44:45.098Z,21.93
2023-08-17T15:47:11.971Z,21.94
2023-08-17T15:49:38.513Z,21.98
2023-08-17T15:52:06.526Z,21.93
2023-08-17T15:54:37.007Z,21.89
2023-08-17T15:57:05.877Z,21.89
2023-08-17T15:59:32.659Z,21.88
2023-08-17T16:01:59.265Z,21.78
2023-08-17T16:04:25.861Z,21.72
2023-08-17T16:06:52.332Z,21.60
2023-08-17T16:09:18.930Z,21.53
2023-08-17T16:11:45.592Z,21.48
2023-08-17T16:14:12.102Z,21.37
2023-08-17T16:16:38.700Z,21.33
2023-08-17T16:19:05.504Z,21.27
2023-08-17T16:21:32.226Z,21.27
2023-08-17T16:23:58.805Z,21.20
2023-08-17T16:26:25.289Z,21.16
2023-08-17T16:28:51.811Z,21.14
2023-08-17T16:31:18.348Z,21.08
2023-08-17T16:33:45.130Z,21.05
2023-08-17T16:36:11.780Z,21.04
2023-08-17T16:38:38.421Z,20.95
2023-08-17T16:41:05.439Z,20.90
2023-08-17T16:43:32.958Z,20.90
2023-08-17T16:45:59.446Z,20.90
2023-08-17T16:48:25.941Z,20.89
2023-08-17T16:50:52.474Z,20.91
2023-08-17T16:53:19.012Z,20.84
2023-08-17T16:55:53.838Z,20.80
2023-08-17T16:58:21.314Z,20.74
2023-08-17T17:00:47.871Z,20.74
2023-08-17T17:03:14.799Z,20.67
2023-08-17T17:05:41.286Z,20.67
2023-08-17T17:08:07.761Z,20.69
2023-08-17T17:10:34.258Z,20.65
2023-08-17T17:13:00.687Z,20.65
2023-08-17T17:15:27.263Z,20.68
2023-08-17T17:17:53.919Z,20.60
2023-08-17T17:20:20.531Z,20.59
2023-08-17T17:22:47.077Z,20.58
2023-08-17T17:25:13.653Z,20.62
2023-08-17T17:27:40.949Z,20.54
2023-08-17T17:30:08.251Z,20.47
2023-08-17T17:32:34.791Z,20.42
2023-08-17T17:35:01.291Z,20.44
2023-08-17T17:37:28.063Z,20.40
2023-08-17T17:39:54.675Z,20.35
2023-08-17T17:42:21.312Z,20.31
2023-08-17T17:44:47.902Z,20.27
2023-08-17T17:47:14.740Z,20.28
2023-08-17T17:49:41.168Z,20.18
2023-08-17T17:52:07.632Z,20.23
2023-08-17T17:54:38.353Z,20.21
2023-08-17T17:57:05.500Z,20.17
2023-08-17T17:59:33.850Z,20.19
2023-08-17T18:02:00.418Z,20.19
2023-08-17T18:04:28.346Z,20.12
2023-08-17T18:06:54.869Z,20.07
2023-08-17T18:09:22.122Z,20.03
2023-08-17T18:11:48.605Z,19.97
2023-08-17T18:14:15.218Z,19.94
2023-08-17T18:16:41.833Z,19.93
2023-08-17T18:19:08.470Z,19.89
2023-08-17T18:21:35.028Z,19.83
2023-08-17T18:24:01.709Z,19.80
2023-08-17T18:26:28.335Z,19.77
2023-08-17T18:28:56.192Z,19.78
2023-08-17T18:31:23.161Z,19.78
2023-08-17T18:33:50.167Z,19.76
2023-08-17T18:36:16.812Z,19.72
2023-08-17T18:38:43.389Z,19.70
2023-08-17T18:41:10.781Z,19.71
2023-08-17T18:43:38.078Z,19.73
2023-08-17T18:46:05.371Z,19.74
2023-08-17T18:48:32.339Z,19.76
2023-08-17T18:50:59.091Z,19.76
2023-08-17T18:53:25.716Z,19.75
2023-08-17T18:55:52.264Z,19.71
2023-08-17T18:58:21.154Z,19.71
2023-08-17T19:00:47.944Z,19.68
2023-08-17T19:03:14.873Z,19.67
2023-08-17T19:05:41.544Z,19.62
2023-08-17T19:08:08.202Z,19.61
2023-08-17T19:10:34.884Z,19.61
2023-08-17T19:13:01.613Z,19.62
2023-08-17T19:15:28.348Z,19.59
2023-08-17T19:17:54.984Z,19.60
2023-08-17T19:20:21.617Z,19.63
2023-08-17T19:22:48.630Z,19.64
2023-08-17T19:25:15.262Z,19.65
2023-08-17T19:27:42.013Z,19.61
2023-08-17T19:30:11.550Z,19.60
2023-08-17T19:32:41.628Z,19.56
2023-08-17T19:35:09.000Z,19.57
2023-08-17T19:37:36.132Z,19.52
2023-08-17T19:40:04.258Z,19.51
2023-08-17T19:42:31.354Z,19.50
2023-08-17T19:44:57.925Z,19.50
2023-08-17T19:47:24.728Z,19.51
2023-08-17T19:49:51.464Z,19.53
2023-08-17T19:52:18.087Z,19.52
2023-08-17T19:54:49.660Z,19.49
2023-08-17T19:57:16.116Z,19.49
2023-08-17T19:59:42.635Z,19.47
2023-08-17T20:02:09.276Z,19.46
2023-08-17T20:04:35.792Z,19.46
2023-08-17T20:07:04.305Z,19.46
2023-08-17T20:09:30.957Z,19.44
2023-08-17T20:11:57.427Z,19.40
2023-08-17T20:14:23.848Z,19.38
2023-08-17T20:16:50.468Z,19.33
2023-08-17T20:19:17.212Z,19.33
2023-08-17T20:21:44.802Z,19.34
2023-08-17T20:24:11.593Z,19.31
2023-08-17T20:26:38.500Z,19.31
2023-08-17T20:29:05.215Z,19.30
2023-08-17T20:31:32.085Z,19.30
2023-08-17T20:33:58.608Z,19.28
2023-08-17T20:36:25.203Z,19.26
2023-08-17T20:38:53.268Z,19.23
2023-08-17T20:41:21.000Z,19.24
2023-08-17T20:43:47.729Z,19.23
2023-08-17T20:46:14.834Z,19.24
2023-08-17T20:48:41.439Z,19.20
2023-08-17T20:51:08.654Z,19.21
2023-08-17T20:53:36.283Z,19.16
2023-08-17T20:56:03.948Z,19.16
2023-08-17T20:58:30.789Z,19.12
2023-08-17T21:00:59.949Z,19.09
2023-08-17T21:03:26.641Z,19.07
2023-08-17T21:05:53.453Z,19.05
2023-08-17T21:08:20.005Z,19.06
2023-08-17T21:10:48.786Z,19.06
2023-08-17T21:13:15.333Z,19.06
2023-08-17T21:15:41.976Z,19.05
2023-08-17T21:18:08.645Z,19.04
2023-08-17T21:20:35.413Z,18.99
2023-08-17T21:23:01.925Z,18.96
2023-08-17T21:25:28.364Z,18.95
2023-08-17T21:27:54.862Z,18.95
2023-08-17T21:30:22.229Z,18.93
2023-08-17T21:32:48.901Z,18.89
2023-08-17T21:35:15.370Z,18.91
2023-08-17T21:37:43.863Z,18.91
2023-08-17T21:40:11.238Z,18.88
2023-08-17T21:42:37.970Z,18.84
2023-08-17T21:45:05.031Z,18.85
2023-08-17T21:47:31.773Z,18.84
2023-08-17T21:49:58.304Z,18.82
2023-08-17T21:52:24.859Z,18.80
2023-08-17T21:54:51.558Z,18.79
2023-08-17T21:57:18.623Z,18.77
2023-08-17T21:59:45.783Z,18.73
2023-08-17T22:02:12.530Z,18.71
2023-08-17T22:04:39.127Z,18.71
2023-08-17T22:07:05.685Z,18.70
2023-08-17T22:09:34.507Z,18.67
2023-08-17T22:12:01.947Z,18.66
2023-08-17T22:14:30.306Z,18.66
2023-08-17T22:16:57.628Z,18.64
2023-08-17T22:19:24.778Z,18.63
2023-08-17T22:21:51.300Z,18.62
2023-08-17T22:24:17.955Z,18.58
2023-08-17T22:26:44.487Z,18.58
2023-08-17T22:29:11.008Z,18.58
2023-08-17T22:31:37.538Z,18.55
2023-08-17T22:34:04.230Z,18.54
2023-08-17T22:36:30.774Z,18.55
2023-08-17T22:38:57.353Z,18.53
2023-08-17T22:41:24.681Z,18.52
2023-08-17T22:43:51.294Z,18.54
2023-08-17T22:46:17.896Z,18.51
2023-08-17T22:48:44.789Z,18.46
2023-08-17T22:51:11.440Z,18.41
2023-08-17T22:53:37.928Z,18.39
2023-08-17T22:56:04.618Z,18.36
2023-08-17T22:58:32.121Z,18.35
2023-08-17T23:00:59.137Z,18.35
2023-08-17T23:03:26.425Z,18.35
2023-08-17T23:05:53.575Z,18.38
2023-08-17T23:08:20.163Z,18.38
2023-08-17T23:10:47.274Z,18.36
2023-08-17T23:13:13.836Z,18.34
2023-08-17T23:15:40.344Z,18.31
2023-08-17T23:18:07.018Z,18.33
2023-08-17T23:20:33.536Z,18.34
2023-08-17T23:23:00.041Z,18.34
2023-08-17T23:25:27.029Z,18.29
2023-08-17T23:27:53.704Z,18.25
2023-08-17T23:30:22.116Z,18.27
2023-08-17T23:32:48.821Z,18.27
2023-08-17T23:35:15.397Z,18.27
2023-08-17T23:37:41.855Z,18.24
2023-08-17T23:40:09.053Z,18.23
2023-08-17T23:42:35.573Z,18.21
2023-08-17T23:45:02.248Z,18.19
2023-08-17T23:47:28.924Z,18.19
2023-08-17T23:49:55.631Z,18.20
2023-08-17T23:52:22.215Z,18.20
2023-08-17T23:54:48.743Z,18.16
2023-08-17T23:57:15.202Z,18.11
2023-08-17T23:59:41.701Z,18.11
